Time;durP1;ratioP1;P1;durP2;ratioP2;P2;SDS_P1;SDS_P2;PMS_P1;PMS_P2;Temp;Humidity;BMP_temperature;BMP_pressure;BME280_temperature;BME280_humidity;BME280_pressure;Samples;Min_cycle;Max_cycle;Signal;HPM_P1;HPM_P2
2023/02/19 00:01:24;;;;;;;16.30;10.40;;;;;;;;;;767996;180;919850;-68
2023/02/19 00:03:51;;;;;;;7.00;4.50;;;;;;;;;;775164;181;916802;-68
2023/02/19 00:06:16;;;;;;;9.73;3.40;;;;;;;;;;766617;179;918503;-73
2023/02/19 00:08:41;;;;;;;4.73;2.73;;;;;;;;;;766999;181;918497;-73
2023/02/19 00:11:07;;;;;;;6.70;2.40;;;;;;;;;;778462;180;917938;-66
2023/02/19 00:13:36;;;;;;;3.90;1.80;;;;;;;;;;770279;180;897817;-74
2023/02/19 00:16:06;;;;;;;3.07;1.83;;;;;;;;;;769282;180;918614;-68
2023/02/19 00:18:32;;;;;;;7.07;1.90;;;;;;;;;;771109;180;917443;-67
2023/02/19 00:20:58;;;;;;;3.10;1.60;;;;;;;;;;776466;181;917481;-68
2023/02/19 00:23:24;;;;;;;2.70;1.70;;;;;;;;;;771181;180;919235;-73
2023/02/19 00:25:50;;;;;;;3.37;1.90;;;;;;;;;;771667;180;918909;-73
2023/02/19 00:28:16;;;;;;;2.93;1.90;;;;;;;;;;774847;181;919131;-73
2023/02/19 00:30:41;;;;;;;3.00;2.00;;;;;;;;;;768874;181;929145;-73
2023/02/19 00:33:07;;;;;;;3.40;1.73;;;;;;;;;;768528;181;934906;-68
2023/02/19 00:35:33;;;;;;;4.50;1.97;;;;;;;;;;771575;181;918992;-68
2023/02/19 00:37:59;;;;;;;2.80;2.00;;;;;;;;;;774283;178;920459;-74
2023/02/19 00:40:25;;;;;;;2.73;1.70;;;;;;;;;;771688;180;814706;-67
2023/02/19 00:42:51;;;;;;;3.60;1.83;;;;;;;;;;773883;179;916360;-73
2023/02/19 00:45:16;;;;;;;2.97;1.90;;;;;;;;;;776442;179;814618;-68
2023/02/19 00:47:43;;;;;;;3.50;1.97;;;;;;;;;;769134;181;915194;-73
2023/02/19 00:50:08;;;;;;;4.10;1.90;;;;;;;;;;765089;181;918387;-68
2023/02/19 00:52:34;;;;;;;4.32;1.70;;;;;;;;;;773749;181;918653;-73
2023/02/19 00:55:00;;;;;;;4.53;2.47;;;;;;;;;;766518;181;913302;-73
2023/02/19 00:57:26;;;;;;;3.63;1.80;;;;;;;;;;769090;181;919057;-74
2023/02/19 00:59:52;;;;;;;5.53;2.30;;;;;;;;;;772790;179;924279;-68
2023/02/19 01:02:18;;;;;;;3.80;2.27;;;;;;;;;;769342;181;920663;-73
2023/02/19 01:04:43;;;;;;;3.40;1.83;;;;;;;;;;772993;180;887605;-67
2023/02/19 01:07:09;;;;;;;5.43;2.20;;;;;;;;;;771151;180;919538;-73
2023/02/19 01:09:36;;;;;;;2.57;1.63;;;;;;;;;;771622;181;937893;-67
2023/02/19 01:12:01;;;;;;;2.80;1.70;;;;;;;;;;770491;180;918475;-68
2023/02/19 01:14:27;;;;;;;4.10;2.00;;;;;;;;;;769865;181;917852;-73
2023/02/19 01:16:53;;;;;;;3.93;2.20;;;;;;;;;;771865;181;918819;-74
2023/02/19 01:19:18;;;;;;;3.80;2.00;;;;;;;;;;772044;180;1020617;-73
2023/02/19 01:21:44;;;;;;;3.40;2.17;;;;;;;;;;767723;180;918626;-73
2023/02/19 01:24:10;;;;;;;4.30;1.87;;;;;;;;;;779758;180;854672;-66
2023/02/19 01:26:36;;;;;;;2.63;1.70;;;;;;;;;;775561;180;919332;-69
2023/02/19 01:29:02;;;;;;;3.80;1.80;;;;;;;;;;772542;180;919088;-68
2023/02/19 01:31:28;;;;;;;2.80;1.63;;;;;;;;;;770033;181;918101;-73
2023/02/19 01:33:53;;;;;;;3.07;1.90;;;;;;;;;;777406;181;918860;-67
2023/02/19 01:36:19;;;;;;;2.63;1.60;;;;;;;;;;768340;181;926620;-73
2023/02/19 01:38:45;;;;;;;4.13;1.87;;;;;;;;;;767518;181;920894;-67
2023/02/19 01:41:11;;;;;;;2.50;1.57;;;;;;;;;;763061;183;819863;-68
2023/02/19 01:43:43;;;;;;;3.08;1.77;;;;;;;;;;770012;181;916858;-74
2023/02/19 01:46:08;;;;;;;6.60;2.00;;;;;;;;;;767121;181;1018661;-67
2023/02/19 01:48:34;;;;;;;4.83;1.80;;;;;;;;;;771635;181;815507;-74
2023/02/19 01:51:02;;;;;;;3.60;2.27;;;;;;;;;;770718;179;917950;-74
2023/02/19 01:53:28;;;;;;;2.53;2.33;;;;;;;;;;771339;180;918563;-67
2023/02/19 01:55:54;;;;;;;3.60;1.90;;;;;;;;;;767707;179;919275;-74
2023/02/19 01:58:20;;;;;;;2.70;1.60;;;;;;;;;;777074;181;816815;-67
2023/02/19 02:00:45;;;;;;;4.20;1.63;;;;;;;;;;768626;181;918554;-74
2023/02/19 02:03:11;;;;;;;5.60;1.70;;;;;;;;;;770590;180;919152;-68
2023/02/19 02:05:52;;;;;;;5.45;1.95;;;;;;;;;;775996;181;919593;-73
2023/02/19 02:10:49;;;;;;;2.53;1.77;;;;;;;;;;769045;181;918813;-74
2023/02/19 02:13:15;;;;;;;2.80;1.80;;;;;;;;;;763863;181;937616;-68
2023/02/19 02:15:42;;;;;;;3.53;1.70;;;;;;;;;;768505;180;919153;-76
2023/02/19 02:18:09;;;;;;;4.15;2.50;;;;;;;;;;773409;182;918307;-67
2023/02/19 02:20:34;;;;;;;5.13;1.77;;;;;;;;;;767561;180;915144;-75
2023/02/19 02:23:06;;;;;;;3.10;2.12;;;;;;;;;;770546;181;918309;-67
2023/02/19 02:25:34;;;;;;;3.57;1.73;;;;;;;;;;773102;181;918360;-73
2023/02/19 02:28:15;;;;;;;3.73;2.00;;;;;;;;;;767630;180;816266;-75
2023/02/19 02:30:44;;;;;;;3.23;1.83;;;;;;;;;;762470;183;919573;-74
2023/02/19 02:33:16;;;;;;;3.37;1.80;;;;;;;;;;764735;181;819897;-73
2023/02/19 02:35:41;;;;;;;2.83;1.83;;;;;;;;;;766432;181;918437;-67
2023/02/19 02:38:07;;;;;;;4.10;2.03;;;;;;;;;;778715;179;914943;-68
2023/02/19 02:40:33;;;;;;;3.10;1.60;;;;;;;;;;766302;180;919403;-72
2023/02/19 02:42:59;;;;;;;2.80;1.80;;;;;;;;;;774979;181;911377;-74
2023/02/19 02:47:57;;;;;;;4.30;2.27;;;;;;;;;;770479;181;919327;-74
2023/02/19 02:50:23;;;;;;;2.97;2.10;;;;;;;;;;768027;181;919055;-74
2023/02/19 02:55:21;;;;;;;3.23;1.60;;;;;;;;;;761684;179;919356;-68
2023/02/19 02:57:47;;;;;;;4.00;2.30;;;;;;;;;;775151;181;919297;-68
2023/02/19 03:00:13;;;;;;;3.90;1.97;;;;;;;;;;773832;181;918559;-67
2023/02/19 03:02:38;;;;;;;3.73;2.00;;;;;;;;;;769481;180;920904;-74
2023/02/19 03:07:39;;;;;;;2.67;1.70;;;;;;;;;;765049;182;919880;-75
2023/02/19 03:10:05;;;;;;;4.43;2.10;;;;;;;;;;763682;181;920538;-68
2023/02/19 03:20:10;;;;;;;3.20;2.07;;;;;;;;;;766563;181;818443;-74
2023/02/19 03:22:35;;;;;;;3.85;2.03;;;;;;;;;;768057;180;920164;-67
2023/02/19 03:27:34;;;;;;;2.80;1.80;;;;;;;;;;762835;180;918200;-68
2023/02/19 03:30:01;;;;;;;3.70;2.40;;;;;;;;;;772034;180;816600;-68
2023/02/19 03:32:27;;;;;;;7.87;3.20;;;;;;;;;;769688;180;1011012;-74
2023/02/19 03:34:53;;;;;;;3.50;1.83;;;;;;;;;;776445;181;810428;-68
2023/02/19 03:37:24;;;;;;;3.10;1.90;;;;;;;;;;770869;180;919724;-74
2023/02/19 03:39:47;;;;;;;5.93;1.90;;;;;;;;;;771436;181;918200;-68
2023/02/19 03:42:13;;;;;;;4.50;1.93;;;;;;;;;;768603;180;918221;-74
2023/02/19 03:44:39;;;;;;;3.27;2.10;;;;;;;;;;772195;180;785130;-74
2023/02/19 03:47:20;;;;;;;3.63;2.30;;;;;;;;;;770023;180;918240;-68
2023/02/19 03:49:57;;;;;;;3.67;2.30;;;;;;;;;;762314;180;820734;-68
2023/02/19 03:52:23;;;;;;;6.23;2.70;;;;;;;;;;770995;180;919276;-74
2023/02/19 03:54:50;;;;;;;3.13;2.13;;;;;;;;;;768335;181;918709;-68
2023/02/19 03:57:18;;;;;;;3.87;2.60;;;;;;;;;;772740;182;918948;-73
2023/02/19 03:59:44;;;;;;;6.37;2.50;;;;;;;;;;773416;181;920514;-68
2023/02/19 04:02:11;;;;;;;4.63;2.50;;;;;;;;;;771811;180;915870;-68
2023/02/19 04:04:36;;;;;;;3.23;2.87;;;;;;;;;;774285;181;818372;-68
2023/02/19 04:07:02;;;;;;;3.57;2.93;;;;;;;;;;774019;180;819769;-71
2023/02/19 04:09:28;;;;;;;4.47;3.00;;;;;;;;;;773370;180;921112;-74
2023/02/19 04:11:54;;;;;;;3.73;2.40;;;;;;;;;;766120;182;918152;-73
2023/02/19 04:14:20;;;;;;;4.30;2.57;;;;;;;;;;769789;181;816826;-74
2023/02/19 04:16:46;;;;;;;7.93;3.40;;;;;;;;;;758105;181;919811;-73
2023/02/19 04:19:11;;;;;;;3.50;2.37;;;;;;;;;;765579;181;918999;-72
2023/02/19 04:21:37;;;;;;;3.37;2.50;;;;;;;;;;777358;181;918861;-67
2023/02/19 04:24:03;;;;;;;5.20;2.87;;;;;;;;;;768087;181;917364;-67
2023/02/19 04:26:29;;;;;;;4.90;3.27;;;;;;;;;;766358;181;919574;-67
2023/02/19 04:28:55;;;;;;;4.90;2.50;;;;;;;;;;771689;182;1018381;-73
2023/02/19 04:31:21;;;;;;;5.10;2.67;;;;;;;;;;765650;182;1022318;-67
2023/02/19 04:33:47;;;;;;;4.50;2.93;;;;;;;;;;770355;179;896618;-74
2023/02/19 04:36:12;;;;;;;4.40;3.03;;;;;;;;;;772076;179;919015;-74
2023/02/19 04:38:38;;;;;;;4.25;2.80;;;;;;;;;;771563;181;919437;-74
2023/02/19 04:41:04;;;;;;;4.77;2.73;;;;;;;;;;771006;181;919298;-73
2023/02/19 04:43:30;;;;;;;4.20;3.03;;;;;;;;;;771335;180;920478;-67
2023/02/19 04:45:56;;;;;;;3.90;2.60;;;;;;;;;;772163;180;919413;-67
2023/02/19 04:48:22;;;;;;;6.03;2.73;;;;;;;;;;768693;180;944361;-66
2023/02/19 04:50:48;;;;;;;4.33;2.90;;;;;;;;;;770163;181;817156;-67
2023/02/19 04:53:13;;;;;;;4.23;2.80;;;;;;;;;;770415;181;921984;-73
2023/02/19 04:55:39;;;;;;;5.57;2.93;;;;;;;;;;774894;181;879253;-73
2023/02/19 04:58:05;;;;;;;2.87;2.07;;;;;;;;;;773367;179;919148;-65
2023/02/19 05:00:32;;;;;;;4.20;2.67;;;;;;;;;;775368;181;623612;-65
2023/02/19 05:02:57;;;;;;;3.80;2.40;;;;;;;;;;767812;182;918697;-66
2023/02/19 05:05:23;;;;;;;4.23;2.70;;;;;;;;;;773604;181;917914;-66
2023/02/19 05:07:48;;;;;;;6.37;2.97;;;;;;;;;;773760;181;922215;-72
2023/02/19 05:10:14;;;;;;;4.63;3.07;;;;;;;;;;761149;180;917182;-66
2023/02/19 05:12:40;;;;;;;3.65;2.42;;;;;;;;;;760851;181;920042;-72
2023/02/19 05:15:06;;;;;;;5.60;3.30;;;;;;;;;;767543;179;908198;-65
2023/02/19 05:17:32;;;;;;;3.33;2.63;;;;;;;;;;775617;181;918767;-65
2023/02/19 05:19:58;;;;;;;3.50;2.47;;;;;;;;;;770597;181;918863;-75
2023/02/19 05:22:24;;;;;;;5.90;2.60;;;;;;;;;;770245;181;924315;-70
2023/02/19 05:24:50;;;;;;;3.43;2.33;;;;;;;;;;777425;181;918380;-66
2023/02/19 05:27:15;;;;;;;5.00;2.90;;;;;;;;;;773755;181;918533;-65
2023/02/19 05:29:41;;;;;;;3.97;2.90;;;;;;;;;;773127;181;920221;-66
2023/02/19 05:32:07;;;;;;;3.72;2.28;;;;;;;;;;768437;181;920313;-72
2023/02/19 05:34:33;;;;;;;4.67;2.80;;;;;;;;;;760319;183;916210;-72
2023/02/19 05:36:59;;;;;;;6.22;3.10;;;;;;;;;;751877;186;917982;-66
2023/02/19 05:39:25;;;;;;;3.43;2.60;;;;;;;;;;758584;181;916269;-63
2023/02/19 05:41:51;;;;;;;3.10;2.23;;;;;;;;;;776918;181;918856;-73
2023/02/19 05:44:17;;;;;;;4.62;2.90;;;;;;;;;;772896;180;918905;-73
2023/02/19 05:46:42;;;;;;;3.60;2.70;;;;;;;;;;773544;181;903189;-73
2023/02/19 05:49:08;;;;;;;3.30;2.10;;;;;;;;;;777295;181;881769;-74
2023/02/19 05:51:34;;;;;;;4.00;2.50;;;;;;;;;;771550;181;945314;-67
2023/02/19 05:54:00;;;;;;;4.17;3.10;;;;;;;;;;769711;181;918491;-74
2023/02/19 05:56:33;;;;;;;3.13;2.13;;;;;;;;;;771702;182;919373;-67
2023/02/19 05:58:59;;;;;;;4.80;2.90;;;;;;;;;;771565;183;920527;-74
2023/02/19 06:01:24;;;;;;;4.10;2.43;;;;;;;;;;771217;181;1020835;-67
2023/02/19 06:03:50;;;;;;;4.27;2.80;;;;;;;;;;769785;179;917969;-73
2023/02/19 06:06:16;;;;;;;4.27;3.13;;;;;;;;;;773946;181;914530;-74
2023/02/19 06:08:42;;;;;;;3.30;2.70;;;;;;;;;;767784;181;916903;-67
2023/02/19 06:11:08;;;;;;;4.83;2.90;;;;;;;;;;774499;179;819058;-74
2023/02/19 06:13:34;;;;;;;4.10;2.80;;;;;;;;;;778248;180;918978;-74
2023/02/19 06:15:59;;;;;;;4.43;2.80;;;;;;;;;;770062;181;925482;-67
2023/02/19 06:18:25;;;;;;;7.10;3.40;;;;;;;;;;770866;180;917677;-67
2023/02/19 06:20:51;;;;;;;4.97;3.70;;;;;;;;;;768028;181;887703;-73
2023/02/19 06:23:17;;;;;;;8.17;3.87;;;;;;;;;;774175;181;843507;-67
2023/02/19 06:25:43;;;;;;;6.23;4.10;;;;;;;;;;772278;181;918354;-68
2023/02/19 06:28:09;;;;;;;6.00;3.37;;;;;;;;;;761935;181;919629;-74
2023/02/19 06:30:34;;;;;;;6.00;4.60;;;;;;;;;;779853;180;892508;-66
2023/02/19 06:33:00;;;;;;;4.07;3.00;;;;;;;;;;774149;180;919066;-68
2023/02/19 06:35:26;;;;;;;7.10;3.17;;;;;;;;;;767911;182;927773;-73
2023/02/19 06:37:52;;;;;;;4.70;3.00;;;;;;;;;;773739;181;919556;-73
2023/02/19 06:40:18;;;;;;;3.90;2.83;;;;;;;;;;769390;181;919372;-72
2023/02/19 06:42:44;;;;;;;3.57;2.03;;;;;;;;;;768312;181;938507;-71
2023/02/19 06:45:10;;;;;;;5.20;2.70;;;;;;;;;;769478;182;904129;-66
2023/02/19 06:47:35;;;;;;;4.30;2.70;;;;;;;;;;780310;178;916655;-74
2023/02/19 06:50:01;;;;;;;5.27;3.57;;;;;;;;;;766557;181;936263;-68
2023/02/19 06:52:27;;;;;;;5.60;3.33;;;;;;;;;;766046;182;917695;-73
2023/02/19 06:54:53;;;;;;;5.00;2.90;;;;;;;;;;771971;181;817281;-74
2023/02/19 06:57:19;;;;;;;5.03;3.33;;;;;;;;;;767532;181;1011456;-68
2023/02/19 06:59:45;;;;;;;5.13;3.30;;;;;;;;;;770610;181;923896;-71
2023/02/19 07:02:11;;;;;;;5.73;3.23;;;;;;;;;;776275;181;919782;-73
2023/02/19 07:04:37;;;;;;;5.20;3.60;;;;;;;;;;767798;180;915829;-67
2023/02/19 07:07:03;;;;;;;5.25;3.30;;;;;;;;;;765263;182;919459;-68
2023/02/19 07:09:29;;;;;;;5.28;3.55;;;;;;;;;;769428;181;919339;-68
2023/02/19 07:11:55;;;;;;;6.33;3.77;;;;;;;;;;772226;179;918204;-73
2023/02/19 07:14:21;;;;;;;6.00;4.07;;;;;;;;;;770122;180;913243;-74
2023/02/19 07:16:47;;;;;;;5.60;4.07;;;;;;;;;;769153;181;923526;-69
2023/02/19 07:19:13;;;;;;;4.70;3.33;;;;;;;;;;774962;181;896790;-68
2023/02/19 07:21:38;;;;;;;4.03;2.93;;;;;;;;;;766982;180;822174;-69
2023/02/19 07:24:04;;;;;;;5.30;4.07;;;;;;;;;;769919;180;915364;-74
2023/02/19 07:26:30;;;;;;;6.40;4.40;;;;;;;;;;776575;181;919575;-73
2023/02/19 07:28:56;;;;;;;4.23;3.27;;;;;;;;;;770648;181;919470;-75
2023/02/19 07:31:22;;;;;;;6.00;4.40;;;;;;;;;;774759;180;918555;-74
2023/02/19 07:33:48;;;;;;;5.70;4.30;;;;;;;;;;775600;180;913193;-75
2023/02/19 07:36:14;;;;;;;5.20;3.80;;;;;;;;;;770914;181;920233;-67
2023/02/19 07:38:39;;;;;;;6.00;4.00;;;;;;;;;;771555;181;918909;-74
2023/02/19 07:41:05;;;;;;;5.07;3.80;;;;;;;;;;765403;180;918720;-74
2023/02/19 07:43:31;;;;;;;5.33;4.10;;;;;;;;;;774858;181;919085;-75
2023/02/19 07:45:57;;;;;;;6.23;3.77;;;;;;;;;;769575;180;929633;-75
2023/02/19 07:48:23;;;;;;;7.97;3.60;;;;;;;;;;770118;180;925657;-74
2023/02/19 07:50:49;;;;;;;7.87;3.83;;;;;;;;;;775350;181;817899;-68
2023/02/19 07:53:15;;;;;;;5.60;3.50;;;;;;;;;;767827;179;920097;-69
2023/02/19 07:55:41;;;;;;;5.15;3.83;;;;;;;;;;768510;179;917863;-68
2023/02/19 07:58:07;;;;;;;6.33;4.50;;;;;;;;;;774818;181;932835;-68
2023/02/19 08:00:33;;;;;;;5.03;3.10;;;;;;;;;;771176;180;814625;-69
2023/02/19 08:02:59;;;;;;;6.17;4.13;;;;;;;;;;770725;181;909932;-67
2023/02/19 08:05:25;;;;;;;4.60;3.50;;;;;;;;;;769313;181;918971;-72
2023/02/19 08:07:50;;;;;;;7.20;4.00;;;;;;;;;;771679;181;846552;-67
2023/02/19 08:15:35;;;;;;;5.57;4.00;;;;;;;;;;766689;179;914756;-75
2023/02/19 08:18:00;;;;;;;5.77;4.10;;;;;;;;;;771177;181;915094;-75
2023/02/19 08:20:26;;;;;;;8.40;4.37;;;;;;;;;;761515;183;916186;-69
2023/02/19 08:22:52;;;;;;;6.23;4.70;;;;;;;;;;770021;180;839397;-76
2023/02/19 08:25:18;;;;;;;6.70;4.13;;;;;;;;;;771248;180;818940;-68
2023/02/19 08:27:44;;;;;;;7.30;5.10;;;;;;;;;;774130;180;918845;-68
2023/02/19 08:30:10;;;;;;;7.10;4.20;;;;;;;;;;771709;180;918852;-68
2023/02/19 08:32:36;;;;;;;5.83;3.67;;;;;;;;;;771988;181;814873;-68
2023/02/19 08:35:02;;;;;;;8.93;4.40;;;;;;;;;;778996;180;619627;-77
2023/02/19 08:37:27;;;;;;;5.60;4.13;;;;;;;;;;775855;179;629915;-68
2023/02/19 08:39:53;;;;;;;5.97;4.03;;;;;;;;;;774533;181;628845;-76
2023/02/19 08:42:19;;;;;;;8.27;4.53;;;;;;;;;;774375;181;620894;-75
2023/02/19 08:44:45;;;;;;;5.37;3.70;;;;;;;;;;772952;182;615077;-70
2023/02/19 08:47:11;;;;;;;4.50;3.20;;;;;;;;;;770820;180;884066;-76
2023/02/19 08:49:37;;;;;;;4.97;3.37;;;;;;;;;;769664;180;975362;-76
2023/02/19 08:52:02;;;;;;;4.37;2.80;;;;;;;;;;778111;181;813600;-71
2023/02/19 08:54:28;;;;;;;5.70;3.40;;;;;;;;;;769398;181;917807;-67
2023/02/19 08:56:54;;;;;;;4.43;3.10;;;;;;;;;;770449;181;917726;-74
2023/02/19 08:59:20;;;;;;;4.95;3.12;;;;;;;;;;774568;181;917195;-74
2023/02/19 09:01:46;;;;;;;4.77;2.93;;;;;;;;;;767531;180;918511;-73
2023/02/19 09:04:12;;;;;;;4.07;2.90;;;;;;;;;;767758;180;912689;-75
2023/02/19 09:06:37;;;;;;;3.50;2.30;;;;;;;;;;774588;181;816909;-67
2023/02/19 09:09:03;;;;;;;4.30;2.53;;;;;;;;;;768970;181;815435;-74
2023/02/19 09:11:29;;;;;;;2.60;1.80;;;;;;;;;;770588;180;818262;-67
2023/02/19 09:13:55;;;;;;;4.80;2.47;;;;;;;;;;771413;180;898879;-74
2023/02/19 09:16:21;;;;;;;3.07;2.00;;;;;;;;;;773115;179;918114;-75
2023/02/19 09:18:47;;;;;;;3.62;2.33;;;;;;;;;;767310;181;824456;-75
2023/02/19 09:21:12;;;;;;;3.33;2.37;;;;;;;;;;770275;180;931940;-67
2023/02/19 09:23:38;;;;;;;4.13;2.10;;;;;;;;;;770540;181;922331;-74
2023/02/19 09:26:06;;;;;;;3.00;1.80;;;;;;;;;;769275;181;853444;-67
2023/02/19 09:28:30;;;;;;;4.90;2.20;;;;;;;;;;768429;181;816221;-77
2023/02/19 09:30:56;;;;;;;2.73;1.93;;;;;;;;;;773478;181;877006;-67
2023/02/19 09:33:22;;;;;;;3.57;2.60;;;;;;;;;;773617;181;819567;-66
2023/02/19 09:35:48;;;;;;;4.07;2.53;;;;;;;;;;769833;181;826070;-74
2023/02/19 09:38:14;;;;;;;4.20;3.20;;;;;;;;;;767871;181;913989;-67
2023/02/19 09:40:40;;;;;;;3.00;2.10;;;;;;;;;;759552;183;828794;-65
2023/02/19 09:43:08;;;;;;;4.83;2.87;;;;;;;;;;769849;180;890429;-73
2023/02/19 09:45:34;;;;;;;4.65;2.65;;;;;;;;;;772871;180;815108;-70
2023/02/19 09:48:00;;;;;;;3.10;1.70;;;;;;;;;;776731;180;889795;-65
2023/02/19 09:50:26;;;;;;;3.80;2.40;;;;;;;;;;772142;180;919288;-71
2023/02/19 09:52:53;;;;;;;3.73;2.30;;;;;;;;;;773285;178;918087;-69
2023/02/19 09:55:20;;;;;;;3.60;1.98;;;;;;;;;;778471;181;818157;-70
2023/02/19 09:57:46;;;;;;;4.23;3.00;;;;;;;;;;771665;179;918200;-68
2023/02/19 10:00:14;;;;;;;5.00;2.70;;;;;;;;;;769558;180;818982;-69
2023/02/19 10:02:40;;;;;;;6.12;3.40;;;;;;;;;;771695;181;922460;-68
2023/02/19 10:05:12;;;;;;;5.20;3.00;;;;;;;;;;773006;180;815895;-65
2023/02/19 10:07:38;;;;;;;4.47;3.00;;;;;;;;;;770021;181;896018;-67
2023/02/19 10:10:09;;;;;;;8.33;2.60;;;;;;;;;;768817;181;801266;-67
2023/02/19 10:12:35;;;;;;;5.50;3.50;;;;;;;;;;767652;181;924488;-67
2023/02/19 10:15:16;;;;;;;6.10;3.40;;;;;;;;;;774921;181;814276;-65
2023/02/19 10:17:42;;;;;;;6.33;3.20;;;;;;;;;;766060;179;919090;-66
2023/02/19 10:20:14;;;;;;;5.17;3.67;;;;;;;;;;771570;180;917314;-67
2023/02/19 10:22:40;;;;;;;7.20;4.27;;;;;;;;;;768728;181;874060;-68
2023/02/19 10:25:06;;;;;;;6.37;3.47;;;;;;;;;;768494;181;933557;-67
2023/02/19 10:27:32;;;;;;;5.53;3.83;;;;;;;;;;766699;181;871537;-65
2023/02/19 10:29:58;;;;;;;5.83;4.37;;;;;;;;;;766478;181;914060;-65
2023/02/19 10:32:24;;;;;;;5.20;3.10;;;;;;;;;;768957;180;915112;-67
2023/02/19 10:34:50;;;;;;;5.63;3.57;;;;;;;;;;773236;180;1025296;-71
2023/02/19 10:37:16;;;;;;;6.30;3.50;;;;;;;;;;769030;181;916655;-74
2023/02/19 10:39:42;;;;;;;5.03;2.75;;;;;;;;;;768311;180;894619;-73
2023/02/19 10:42:17;;;;;;;4.23;2.80;;;;;;;;;;774737;181;919331;-75
2023/02/19 10:44:43;;;;;;;4.20;2.53;;;;;;;;;;766636;183;819453;-76
2023/02/19 10:47:09;;;;;;;4.40;2.43;;;;;;;;;;769397;181;931745;-76
2023/02/19 10:49:35;;;;;;;2.25;1.55;;;;;;;;;;772103;181;715168;-77
2023/02/19 10:52:01;;;;;;;2.73;1.47;;;;;;;;;;772846;180;829238;-69
2023/02/19 10:54:29;;;;;;;2.17;1.10;;;;;;;;;;769760;180;918927;-77
2023/02/19 10:56:53;;;;;;;2.70;1.80;;;;;;;;;;769382;180;813195;-68
2023/02/19 10:59:20;;;;;;;2.97;1.77;;;;;;;;;;776127;179;818201;-78
2023/02/19 11:01:51;;;;;;;2.00;1.23;;;;;;;;;;771826;179;919848;-68
2023/02/19 11:04:18;;;;;;;2.50;1.40;;;;;;;;;;767834;181;921389;-76
2023/02/19 11:06:43;;;;;;;2.20;1.40;;;;;;;;;;767494;181;988584;-68
2023/02/19 11:09:09;;;;;;;2.80;1.50;;;;;;;;;;774598;181;819565;-76
2023/02/19 11:11:35;;;;;;;2.30;1.37;;;;;;;;;;770727;180;875070;-69
2023/02/19 11:14:01;;;;;;;2.75;1.40;;;;;;;;;;770819;181;843771;-68
2023/02/19 11:16:33;;;;;;;3.60;2.10;;;;;;;;;;775112;179;811520;-75
2023/02/19 11:18:59;;;;;;;2.27;1.40;;;;;;;;;;771612;180;808525;-67
2023/02/19 11:21:27;;;;;;;2.55;1.55;;;;;;;;;;770598;179;812717;-75
2023/02/19 11:23:51;;;;;;;3.37;1.60;;;;;;;;;;769435;180;919058;-76
2023/02/19 11:26:17;;;;;;;2.92;1.55;;;;;;;;;;773412;181;943142;-66
2023/02/19 11:28:42;;;;;;;3.57;1.90;;;;;;;;;;769847;180;990263;-67
2023/02/19 11:31:14;;;;;;;4.87;2.50;;;;;;;;;;771926;180;919388;-75
2023/02/19 11:33:43;;;;;;;3.73;2.00;;;;;;;;;;771313;180;819851;-67
2023/02/19 11:36:18;;;;;;;3.27;1.77;;;;;;;;;;773651;181;811160;-67
2023/02/19 11:38:43;;;;;;;2.37;1.27;;;;;;;;;;765334;183;726305;-67
2023/02/19 11:41:09;;;;;;;3.47;1.90;;;;;;;;;;770314;180;915659;-75
2023/02/19 11:43:52;;;;;;;2.57;1.53;;;;;;;;;;768704;180;918585;-67
2023/02/19 11:46:20;;;;;;;2.93;1.63;;;;;;;;;;768693;179;908306;-75
2023/02/19 11:48:53;;;;;;;2.87;1.50;;;;;;;;;;772250;180;918611;-75
2023/02/19 11:51:19;;;;;;;2.50;1.27;;;;;;;;;;767437;181;927574;-76
2023/02/19 11:53:45;;;;;;;3.20;1.80;;;;;;;;;;767516;181;1019176;-66
2023/02/19 11:56:13;;;;;;;2.50;1.43;;;;;;;;;;771895;181;820027;-67
2023/02/19 11:58:43;;;;;;;2.20;1.10;;;;;;;;;;774198;181;912745;-77
2023/02/19 12:01:27;;;;;;;2.20;1.10;;;;;;;;;;770709;180;854032;-66
2023/02/19 12:03:55;;;;;;;2.43;1.10;;;;;;;;;;767262;180;723019;-74
2023/02/19 12:06:21;;;;;;;2.60;1.20;;;;;;;;;;768544;180;919283;-76
2023/02/19 12:08:48;;;;;;;2.70;1.33;;;;;;;;;;767447;180;915380;-67
2023/02/19 12:11:16;;;;;;;2.90;1.70;;;;;;;;;;774979;180;914419;-74
2023/02/19 12:13:41;;;;;;;1.93;1.00;;;;;;;;;;772398;180;885923;-67
2023/02/19 12:16:08;;;;;;;2.20;1.20;;;;;;;;;;774262;180;817272;-75
2023/02/19 12:18:36;;;;;;;2.20;1.20;;;;;;;;;;775750;179;918455;-75
2023/02/19 12:21:02;;;;;;;3.33;1.50;;;;;;;;;;773449;181;817407;-74
2023/02/19 12:23:34;;;;;;;2.20;1.10;;;;;;;;;;773870;179;917701;-66
2023/02/19 12:26:10;;;;;;;2.83;1.40;;;;;;;;;;771213;181;913505;-74
2023/02/19 12:28:51;;;;;;;3.17;1.70;;;;;;;;;;772612;180;822076;-66
2023/02/19 12:31:21;;;;;;;3.03;1.37;;;;;;;;;;767867;180;643818;-74
2023/02/19 12:33:53;;;;;;;2.63;1.80;;;;;;;;;;758601;181;642192;-73
2023/02/19 12:36:34;;;;;;;2.50;1.40;;;;;;;;;;758063;183;635484;-74
2023/02/19 12:39:02;;;;;;;2.23;1.13;;;;;;;;;;756884;182;633704;-74
2023/02/19 12:41:42;;;;;;;2.30;1.23;;;;;;;;;;757103;184;842858;-73
2023/02/19 12:44:08;;;;;;;2.57;1.53;;;;;;;;;;738546;185;923474;-66
2023/02/19 12:46:34;;;;;;;4.30;2.00;;;;;;;;;;774628;180;909846;-72
2023/02/19 12:49:01;;;;;;;6.83;2.77;;;;;;;;;;773099;181;868162;-66
2023/02/19 12:51:32;;;;;;;4.43;2.30;;;;;;;;;;770342;181;919622;-73
2023/02/19 12:53:58;;;;;;;3.47;2.40;;;;;;;;;;768225;181;918081;-73
2023/02/19 12:56:24;;;;;;;4.63;2.00;;;;;;;;;;771375;181;727820;-66
2023/02/19 12:58:50;;;;;;;2.60;1.60;;;;;;;;;;768880;181;907627;-67
2023/02/19 13:01:18;;;;;;;4.10;1.97;;;;;;;;;;771399;181;880581;-73
2023/02/19 13:03:44;;;;;;;5.80;2.30;;;;;;;;;;772956;181;917919;-72
2023/02/19 13:06:11;;;;;;;4.10;2.20;;;;;;;;;;773221;179;918387;-66
2023/02/19 13:08:37;;;;;;;4.23;1.80;;;;;;;;;;768707;180;918348;-73
2023/02/19 13:11:05;;;;;;;4.22;2.78;;;;;;;;;;768847;181;919840;-66
2023/02/19 13:13:31;;;;;;;5.00;3.47;;;;;;;;;;773950;181;917174;-74
2023/02/19 13:16:00;;;;;;;7.20;3.67;;;;;;;;;;767668;181;918985;-71
2023/02/19 13:18:25;;;;;;;20.30;14.33;;;;;;;;;;769535;181;971617;-76
2023/02/19 13:20:53;;;;;;;26.58;20.65;;;;;;;;;;771734;180;964110;-67
2023/02/19 13:26:05;;;;;;;12.50;8.10;;;;;;;;;;770416;180;918271;-67
2023/02/19 13:28:34;;;;;;;30.37;20.60;;;;;;;;;;764207;180;919030;-69
2023/02/19 13:31:01;;;;;;;12.00;9.73;;;;;;;;;;769017;180;818594;-70
2023/02/19 13:33:31;;;;;;;12.27;7.17;;;;;;;;;;774939;181;826536;-68
2023/02/19 13:35:56;;;;;;;7.33;5.07;;;;;;;;;;766083;183;918846;-69
2023/02/19 13:38:23;;;;;;;9.00;7.10;;;;;;;;;;768086;180;815973;-76
2023/02/19 13:40:52;;;;;;;9.23;4.33;;;;;;;;;;769789;181;816998;-76
2023/02/19 13:43:20;;;;;;;9.47;8.03;;;;;;;;;;776906;180;919405;-69
2023/02/19 13:45:46;;;;;;;8.43;5.53;;;;;;;;;;773313;180;818025;-75
2023/02/19 13:48:15;;;;;;;9.53;7.97;;;;;;;;;;773391;181;819203;-76
2023/02/19 13:50:41;;;;;;;8.77;5.33;;;;;;;;;;772369;181;818376;-69
2023/02/19 13:53:09;;;;;;;11.60;9.20;;;;;;;;;;774226;180;1016198;-68
2023/02/19 13:55:50;;;;;;;26.27;16.30;;;;;;;;;;766757;180;1039640;-69
2023/02/19 13:58:21;;;;;;;68.03;35.70;;;;;;;;;;772605;179;918943;-69
2023/02/19 14:00:47;;;;;;;154.60;67.57;;;;;;;;;;766598;181;920555;-69
2023/02/19 14:03:18;;;;;;;32.17;22.50;;;;;;;;;;774177;181;916203;-70
2023/02/19 14:05:47;;;;;;;38.17;17.40;;;;;;;;;;768803;180;818373;-75
2023/02/19 14:08:13;;;;;;;16.37;11.93;;;;;;;;;;772265;180;810984;-68
2023/02/19 14:10:44;;;;;;;9.53;6.60;;;;;;;;;;770537;181;875564;-75
2023/02/19 14:13:10;;;;;;;44.63;22.63;;;;;;;;;;770883;180;872168;-76
2023/02/19 14:15:37;;;;;;;20.73;12.90;;;;;;;;;;767899;180;953737;-68
2023/02/19 14:18:03;;;;;;;6.83;4.47;;;;;;;;;;768867;181;919501;-67
2023/02/19 14:20:43;;;;;;;27.23;14.60;;;;;;;;;;767967;181;917584;-67
2023/02/19 14:23:13;;;;;;;20.90;12.10;;;;;;;;;;769003;180;919734;-74
2023/02/19 14:25:40;;;;;;;11.73;7.77;;;;;;;;;;775001;181;913569;-68
2023/02/19 14:28:12;;;;;;;7.20;5.90;;;;;;;;;;771058;180;926897;-69
2023/02/19 14:30:39;;;;;;;9.00;5.80;;;;;;;;;;767163;181;919018;-67
2023/02/19 14:33:05;;;;;;;10.45;7.35;;;;;;;;;;772408;178;812669;-68
2023/02/19 14:35:33;;;;;;;7.07;5.07;;;;;;;;;;783292;180;920377;-74
2023/02/19 14:37:59;;;;;;;7.97;6.10;;;;;;;;;;769387;179;820163;-74
2023/02/19 14:40:25;;;;;;;7.13;6.40;;;;;;;;;;771054;180;992809;-74
2023/02/19 14:42:51;;;;;;;12.00;5.17;;;;;;;;;;773912;180;922520;-68
2023/02/19 14:45:16;;;;;;;8.27;4.80;;;;;;;;;;773554;180;816727;-73
2023/02/19 14:47:42;;;;;;;7.62;4.97;;;;;;;;;;770817;179;917230;-67
2023/02/19 14:50:08;;;;;;;12.03;7.37;;;;;;;;;;777395;180;915288;-68
2023/02/19 14:52:35;;;;;;;10.70;6.47;;;;;;;;;;771104;181;814187;-68
2023/02/19 14:55:03;;;;;;;9.80;5.07;;;;;;;;;;768592;181;1035286;-69